createdAt,value
2023-10-04T00:01:33.139Z,12.70
2023-10-04T00:03:59.998Z,12.80
2023-10-04T00:06:26.908Z,12.70
2023-10-04T00:08:53.788Z,12.70
2023-10-04T00:11:20.537Z,12.70
2023-10-04T00:13:47.302Z,12.60
2023-10-04T00:16:14.188Z,12.60
2023-10-04T00:18:41.023Z,12.50
2023-10-04T00:21:07.872Z,12.50
2023-10-04T00:23:34.670Z,12.50
2023-10-04T00:26:01.428Z,12.50
2023-10-04T00:28:28.190Z,12.50
2023-10-04T00:30:55.031Z,12.50
2023-10-04T00:33:21.883Z,12.50
2023-10-04T00:35:48.692Z,12.50
2023-10-04T00:38:15.536Z,12.40
2023-10-04T00:40:42.647Z,12.30
2023-10-04T00:43:09.445Z,12.30
2023-10-04T00:45:36.364Z,12.30
2023-10-04T00:48:08.402Z,12.30
2023-10-04T00:50:35.330Z,12.30
2023-10-04T00:53:03.042Z,12.20
2023-10-04T00:55:32.412Z,12.20
2023-10-04T00:58:02.857Z,12.20
2023-10-04T01:00:29.750Z,12.30
2023-10-04T01:02:56.808Z,12.20
2023-10-04T01:05:23.782Z,12.20
2023-10-04T01:07:50.637Z,12.20
2023-10-04T01:10:17.472Z,12.20
2023-10-04T01:12:44.309Z,12.20
2023-10-04T01:15:11.662Z,12.30
2023-10-04T01:17:38.594Z,12.30
2023-10-04T01:20:05.918Z,12.30
2023-10-04T01:22:32.705Z,12.30
2023-10-04T01:24:59.474Z,12.20
2023-10-04T01:27:26.272Z,12.20
2023-10-04T01:29:53.118Z,12.20
2023-10-04T01:32:19.843Z,12.20
2023-10-04T01:34:46.631Z,12.10
2023-10-04T01:37:13.426Z,12.10
2023-10-04T01:39:40.281Z,12.10
2023-10-04T01:42:07.077Z,12.10
2023-10-04T01:44:33.902Z,12.10
2023-10-04T01:47:00.691Z,12.00
2023-10-04T01:49:27.461Z,12.00
2023-10-04T01:51:54.673Z,11.90
2023-10-04T01:54:21.511Z,11.90
2023-10-04T01:56:48.302Z,11.90
2023-10-04T01:59:15.073Z,11.90
2023-10-04T02:01:41.830Z,12.00
2023-10-04T02:04:08.594Z,11.90
2023-10-04T02:06:35.461Z,11.90
2023-10-04T02:09:02.361Z,11.90
2023-10-04T02:11:29.237Z,11.90
2023-10-04T02:13:56.064Z,11.90
2023-10-04T02:16:23.120Z,11.90
2023-10-04T02:18:50.275Z,11.90
2023-10-04T02:21:17.316Z,11.90
2023-10-04T02:23:44.102Z,11.90
2023-10-04T02:26:10.837Z,11.80
2023-10-04T02:28:37.651Z,11.80
2023-10-04T02:31:04.529Z,11.80
2023-10-04T02:33:31.338Z,11.90
2023-10-04T02:35:58.121Z,11.80
2023-10-04T02:38:25.040Z,11.90
2023-10-04T02:40:52.151Z,11.90
2023-10-04T02:43:20.086Z,11.90
2023-10-04T02:45:47.113Z,11.90
2023-10-04T02:48:13.927Z,11.90
2023-10-04T02:50:40.857Z,11.90
2023-10-04T02:53:07.995Z,11.90
2023-10-04T02:55:35.101Z,11.90
2023-10-04T02:58:01.927Z,11.90
2023-10-04T03:00:28.738Z,11.80
2023-10-04T03:02:55.551Z,11.80
2023-10-04T03:05:23.039Z,11.80
2023-10-04T03:07:51.368Z,11.80
2023-10-04T03:10:19.657Z,11.80
2023-10-04T03:12:46.437Z,11.80
2023-10-04T03:15:13.248Z,11.80
2023-10-04T03:17:40.086Z,11.80
2023-10-04T03:20:07.546Z,11.80
2023-10-04T03:22:34.302Z,11.80
2023-10-04T03:25:01.060Z,11.70
2023-10-04T03:27:27.890Z,11.80
2023-10-04T03:29:54.728Z,11.80
2023-10-04T03:32:21.506Z,11.80
2023-10-04T03:34:48.298Z,11.80
2023-10-04T03:37:15.050Z,11.80
2023-10-04T03:39:41.857Z,11.80
2023-10-04T03:42:08.776Z,11.80
2023-10-04T03:44:35.535Z,11.80
2023-10-04T03:47:02.285Z,11.80
2023-10-04T03:49:29.111Z,11.80
2023-10-04T03:51:56.004Z,11.80
2023-10-04T03:54:23.027Z,11.80
2023-10-04T03:56:49.945Z,11.80
2023-10-04T03:59:16.699Z,11.80
2023-10-04T04:01:43.534Z,11.80
2023-10-04T04:04:10.547Z,11.80
2023-10-04T04:06:37.466Z,11.90
2023-10-04T04:09:04.447Z,11.80
2023-10-04T04:11:31.482Z,11.80
2023-10-04T04:13:58.241Z,11.80
2023-10-04T04:16:25.015Z,11.80
2023-10-04T04:18:51.859Z,11.80
2023-10-04T04:21:18.639Z,11.80
2023-10-04T04:23:45.426Z,11.80
2023-10-04T04:26:12.263Z,11.80
2023-10-04T04:28:39.273Z,11.80
2023-10-04T04:31:06.211Z,11.80
2023-10-04T04:33:33.146Z,11.80
2023-10-04T04:35:59.914Z,11.80
2023-10-04T04:38:26.752Z,11.70
2023-10-04T04:40:54.533Z,11.80
2023-10-04T04:43:22.247Z,11.70
2023-10-04T04:45:55.058Z,11.70
2023-10-04T04:48:26.648Z,11.80
2023-10-04T04:50:55.144Z,11.80
2023-10-04T04:53:22.974Z,11.70
2023-10-04T04:55:50.696Z,11.70
2023-10-04T04:58:20.963Z,11.70
2023-10-04T05:00:48.265Z,11.70
2023-10-04T05:03:15.164Z,11.70
2023-10-04T05:05:41.995Z,11.70
2023-10-04T05:08:10.364Z,11.70
2023-10-04T05:10:38.718Z,11.70
2023-10-04T05:13:08.551Z,11.70
2023-10-04T05:15:35.975Z,11.70
2023-10-04T05:18:03.372Z,11.70
2023-10-04T05:20:30.169Z,11.70
2023-10-04T05:22:56.920Z,11.70
2023-10-04T05:25:23.740Z,11.70
2023-10-04T05:27:51.138Z,11.70
2023-10-04T05:30:18.055Z,11.70
2023-10-04T05:32:45.064Z,11.60
2023-10-04T05:35:11.877Z,11.70
2023-10-04T05:37:38.693Z,11.60
2023-10-04T05:40:05.989Z,11.60
2023-10-04T05:42:32.779Z,11.60
2023-10-04T05:44:59.545Z,11.60
2023-10-04T05:47:26.341Z,11.70
2023-10-04T05:49:53.106Z,11.70
2023-10-04T05:52:19.870Z,11.70
2023-10-04T05:54:46.652Z,11.80
2023-10-04T05:57:13.460Z,11.80
2023-10-04T05:59:40.364Z,11.80
2023-10-04T06:02:07.177Z,11.80
2023-10-04T06:04:34.085Z,11.80
2023-10-04T06:07:00.880Z,11.80
2023-10-04T06:09:28.533Z,11.90
2023-10-04T06:11:55.480Z,11.90
2023-10-04T06:14:22.226Z,11.90
2023-10-04T06:16:49.021Z,11.90
2023-10-04T06:19:27.113Z,11.90
2023-10-04T06:21:58.115Z,11.90
2023-10-04T06:24:24.901Z,11.90
2023-10-04T06:26:51.884Z,11.90
2023-10-04T06:29:18.694Z,11.90
2023-10-04T06:31:45.708Z,12.00
2023-10-04T06:34:12.508Z,12.00
2023-10-04T06:36:39.381Z,12.10
2023-10-04T06:39:06.359Z,12.10
2023-10-04T06:41:33.250Z,12.10
2023-10-04T06:44:00.064Z,12.20
2023-10-04T06:46:26.946Z,12.20
2023-10-04T06:48:53.839Z,12.20
2023-10-04T06:51:20.756Z,12.40
2023-10-04T06:53:47.573Z,12.40
2023-10-04T06:56:14.355Z,12.50
2023-10-04T06:58:41.141Z,12.50
2023-10-04T07:01:08.312Z,12.50
2023-10-04T07:03:35.372Z,12.50
2023-10-04T07:06:02.234Z,12.60
2023-10-04T07:08:29.007Z,12.60
2023-10-04T07:10:55.816Z,12.60
2023-10-04T07:13:22.632Z,12.50
2023-10-04T07:15:49.500Z,12.50
2023-10-04T07:18:16.406Z,12.60
2023-10-04T07:20:43.367Z,12.60
2023-10-04T07:23:10.736Z,12.70
2023-10-04T07:25:38.829Z,12.60
2023-10-04T07:28:07.333Z,12.70
2023-10-04T07:30:34.788Z,12.70
2023-10-04T07:33:01.696Z,12.70
2023-10-04T07:35:29.596Z,12.90
2023-10-04T07:38:00.180Z,12.90
2023-10-04T07:40:29.536Z,12.90
2023-10-04T07:42:56.467Z,12.90
2023-10-04T07:45:25.180Z,13.00
2023-10-04T07:47:52.250Z,13.00
2023-10-04T07:50:20.424Z,13.00
2023-10-04T07:52:47.234Z,13.10
2023-10-04T07:55:14.449Z,13.00
2023-10-04T07:57:49.123Z,13.00
2023-10-04T08:00:17.035Z,13.10
2023-10-04T08:02:48.940Z,13.10
2023-10-04T08:05:16.859Z,13.10
2023-10-04T08:07:43.638Z,13.10
2023-10-04T08:10:10.778Z,13.10
2023-10-04T08:12:37.631Z,13.20
2023-10-04T08:15:06.514Z,13.20
2023-10-04T08:17:33.361Z,13.20
2023-10-04T08:20:00.235Z,13.30
2023-10-04T08:22:27.078Z,13.40
2023-10-04T08:24:55.353Z,13.40
2023-10-04T08:27:22.167Z,13.40
2023-10-04T08:29:49.020Z,13.40
2023-10-04T08:32:15.828Z,13.40
2023-10-04T08:34:42.661Z,13.50
2023-10-04T08:37:09.412Z,13.50
2023-10-04T08:39:36.227Z,13.50
2023-10-04T08:42:03.072Z,13.70
2023-10-04T08:44:31.286Z,13.60
2023-10-04T08:47:01.164Z,13.70
2023-10-04T08:49:37.474Z,13.70
2023-10-04T08:52:17.438Z,13.80
2023-10-04T08:54:46.770Z,13.90
2023-10-04T08:57:18.747Z,13.90
2023-10-04T08:59:46.068Z,14.00
2023-10-04T09:02:15.441Z,14.00
2023-10-04T09:04:43.650Z,14.10
2023-10-04T09:07:11.000Z,14.10
2023-10-04T09:09:39.699Z,14.10
2023-10-04T09:12:08.054Z,14.20
2023-10-04T09:14:35.712Z,14.30
2023-10-04T09:17:06.861Z,14.40
2023-10-04T09:19:34.730Z,14.30
2023-10-04T09:22:06.288Z,14.40
2023-10-04T09:24:33.244Z,14.40
2023-10-04T09:27:00.159Z,14.30
2023-10-04T09:29:31.885Z,14.20
2023-10-04T09:31:58.819Z,14.20
2023-10-04T09:34:25.682Z,14.20
2023-10-04T09:36:53.310Z,14.20
2023-10-04T09:39:23.915Z,14.30
2023-10-04T09:41:56.059Z,14.40
2023-10-04T09:44:30.971Z,14.30
2023-10-04T09:47:01.926Z,14.40
2023-10-04T09:49:34.292Z,14.50
2023-10-04T09:52:13.332Z,14.60
2023-10-04T09:54:40.927Z,14.60
2023-10-04T09:57:09.050Z,14.70
2023-10-04T09:59:36.096Z,14.70
2023-10-04T10:02:04.219Z,14.80
2023-10-04T10:04:37.305Z,14.90
2023-10-04T10:07:21.310Z,14.90
2023-10-04T10:10:10.785Z,15.00
2023-10-04T10:12:42.765Z,15.10
2023-10-04T10:15:09.739Z,15.10
2023-10-04T10:17:36.637Z,15.00
2023-10-04T10:20:04.324Z,14.90
2023-10-04T10:22:33.217Z,14.90
2023-10-04T10:24:59.949Z,14.80
2023-10-04T10:27:28.704Z,14.90
2023-10-04T10:30:00.192Z,14.90
2023-10-04T10:32:27.231Z,14.90
2023-10-04T10:35:04.714Z,15.00
2023-10-04T10:37:32.224Z,15.00
2023-10-04T10:39:59.066Z,14.90
2023-10-04T10:42:26.433Z,14.90
2023-10-04T10:45:25.878Z,14.80
2023-10-04T10:47:59.753Z,14.80
2023-10-04T10:50:37.949Z,14.80
2023-10-04T10:53:10.034Z,14.70
2023-10-04T10:55:37.953Z,14.50
2023-10-04T10:58:04.900Z,14.40
2023-10-04T11:00:31.829Z,14.40
2023-10-04T11:02:59.603Z,14.50
2023-10-04T11:05:26.704Z,14.50
2023-10-04T11:07:55.465Z,14.60
2023-10-04T11:10:24.902Z,14.70
2023-10-04T11:12:53.470Z,14.80
2023-10-04T11:15:20.961Z,14.90
2023-10-04T11:17:48.053Z,15.00
2023-10-04T11:20:15.707Z,15.10
2023-10-04T11:22:42.984Z,15.30
2023-10-04T11:25:10.108Z,15.20
2023-10-04T11:27:38.669Z,15.20
2023-10-04T11:30:07.302Z,15.20
2023-10-04T11:32:34.280Z,15.20
2023-10-04T11:35:01.174Z,15.20
2023-10-04T11:37:29.034Z,15.10
2023-10-04T11:39:58.224Z,15.00
2023-10-04T11:42:25.102Z,14.90
2023-10-04T11:44:52.105Z,15.00
2023-10-04T11:47:29.763Z,15.00
2023-10-04T11:50:01.302Z,15.20
2023-10-04T11:52:32.693Z,15.30
2023-10-04T11:55:00.765Z,15.40
2023-10-04T11:57:29.732Z,15.50
2023-10-04T11:59:57.280Z,15.50
2023-10-04T12:02:27.616Z,15.40
2023-10-04T12:04:54.783Z,15.40
2023-10-04T12:07:21.899Z,15.40
2023-10-04T12:09:48.762Z,15.40
2023-10-04T12:12:15.603Z,15.30
2023-10-04T12:14:42.363Z,15.30
2023-10-04T12:17:09.122Z,15.30
2023-10-04T12:19:36.709Z,15.20
2023-10-04T12:22:05.685Z,15.20
2023-10-04T12:24:32.854Z,15.00
2023-10-04T12:27:00.105Z,14.90
2023-10-04T12:29:27.761Z,14.90
2023-10-04T12:31:55.437Z,14.90
2023-10-04T12:34:22.537Z,15.00
2023-10-04T12:36:55.943Z,15.00
2023-10-04T12:39:25.675Z,15.00
2023-10-04T12:41:52.626Z,15.10
2023-10-04T12:44:19.955Z,15.20
2023-10-04T12:46:47.577Z,15.20
2023-10-04T12:49:15.687Z,15.10
2023-10-04T12:51:43.116Z,15.10
2023-10-04T12:54:10.096Z,14.80
2023-10-04T12:56:38.695Z,14.80
2023-10-04T12:59:06.865Z,14.70
2023-10-04T13:01:34.296Z,14.80
2023-10-04T13:04:02.099Z,14.90
2023-10-04T13:06:30.333Z,14.90
2023-10-04T13:08:57.397Z,15.00
2023-10-04T13:11:24.770Z,15.00
2023-10-04T13:13:51.992Z,15.00
2023-10-04T13:16:18.828Z,15.10
2023-10-04T13:18:45.863Z,15.30
2023-10-04T13:21:13.062Z,15.70
2023-10-04T13:23:39.879Z,16.00
2023-10-04T13:26:06.700Z,16.10
2023-10-04T13:28:33.509Z,16.10
2023-10-04T13:31:00.362Z,16.20
2023-10-04T13:33:27.541Z,16.20
2023-10-04T13:35:54.671Z,16.10
2023-10-04T13:38:22.062Z,16.00
2023-10-04T13:40:49.480Z,16.00
2023-10-04T13:43:16.353Z,15.90
2023-10-04T13:45:44.229Z,15.90
2023-10-04T13:48:11.554Z,15.80
2023-10-04T13:50:41.982Z,15.80
2023-10-04T13:53:10.190Z,15.80
2023-10-04T13:55:40.960Z,15.80
2023-10-04T13:58:08.309Z,15.90
2023-10-04T14:00:35.170Z,16.00
2023-10-04T14:03:02.097Z,16.10
2023-10-04T14:05:29.006Z,16.20
2023-10-04T14:07:55.993Z,16.50
2023-10-04T14:10:24.036Z,16.80
2023-10-04T14:12:52.073Z,17.10
2023-10-04T14:15:18.905Z,17.30
2023-10-04T14:17:45.756Z,17.30
2023-10-04T14:20:12.962Z,17.30
2023-10-04T14:22:39.865Z,17.30
2023-10-04T14:25:07.396Z,17.10
2023-10-04T14:27:34.364Z,16.90
2023-10-04T14:30:01.175Z,16.80
2023-10-04T14:32:27.995Z,16.70
2023-10-04T14:34:57.087Z,16.60
2023-10-04T14:37:24.725Z,16.50
2023-10-04T14:39:51.596Z,16.40
2023-10-04T14:42:18.581Z,16.40
2023-10-04T14:44:45.395Z,16.30
2023-10-04T14:47:12.288Z,16.40
2023-10-04T14:49:39.080Z,16.40
2023-10-04T14:52:06.020Z,16.40
2023-10-04T14:54:32.842Z,16.40
2023-10-04T14:56:59.595Z,16.50
2023-10-04T14:59:26.428Z,16.60
2023-10-04T15:01:53.269Z,16.60
2023-10-04T15:04:20.314Z,16.50
2023-10-04T15:06:47.490Z,16.40
2023-10-04T15:09:14.275Z,16.40
2023-10-04T15:11:41.126Z,16.20
2023-10-04T15:14:08.013Z,16.10
2023-10-04T15:16:34.941Z,16.00
2023-10-04T15:19:01.853Z,16.00
2023-10-04T15:21:28.982Z,15.90
2023-10-04T15:23:56.421Z,15.80
2023-10-04T15:26:23.187Z,15.80
2023-10-04T15:28:49.979Z,15.80
2023-10-04T15:31:16.936Z,15.80
2023-10-04T15:33:45.049Z,15.70
2023-10-04T15:36:12.070Z,15.80
2023-10-04T15:38:38.872Z,15.80
2023-10-04T15:41:05.713Z,15.70
2023-10-04T15:43:32.535Z,15.70
2023-10-04T15:45:59.542Z,15.70
2023-10-04T15:48:26.706Z,15.70
2023-10-04T15:50:53.607Z,15.70
2023-10-04T15:53:20.406Z,15.70
2023-10-04T15:55:47.183Z,15.70
2023-10-04T15:58:14.074Z,15.60
2023-10-04T16:00:40.925Z,15.60
2023-10-04T16:03:09.821Z,15.60
2023-10-04T16:05:37.021Z,15.60
2023-10-04T16:08:04.253Z,15.50
2023-10-04T16:10:31.109Z,15.40
2023-10-04T16:12:59.439Z,15.40
2023-10-04T16:15:27.323Z,15.30
2023-10-04T16:17:55.193Z,15.30
2023-10-04T16:20:22.198Z,15.30
2023-10-04T16:22:49.114Z,15.30
2023-10-04T16:25:16.076Z,15.30
2023-10-04T16:27:48.121Z,15.20
2023-10-04T16:30:16.183Z,15.20
2023-10-04T16:32:47.054Z,15.10
2023-10-04T16:35:14.838Z,15.10
2023-10-04T16:37:45.427Z,15.10
2023-10-04T16:40:13.371Z,15.00
2023-10-04T16:42:44.534Z,15.00
2023-10-04T16:45:13.292Z,15.00
2023-10-04T16:47:41.151Z,15.00
2023-10-04T16:50:08.566Z,15.00
2023-10-04T16:52:35.354Z,15.00
2023-10-04T16:55:02.199Z,14.90
2023-10-04T16:57:29.074Z,14.90
2023-10-04T16:59:55.954Z,14.90
2023-10-04T17:02:22.893Z,14.90
2023-10-04T17:04:50.919Z,14.90
2023-10-04T17:07:17.867Z,14.90
2023-10-04T17:09:46.093Z,14.80
2023-10-04T17:12:12.901Z,14.80
2023-10-04T17:14:40.642Z,14.80
2023-10-04T17:17:09.193Z,14.80
2023-10-04T17:19:36.638Z,14.80
2023-10-04T17:22:03.600Z,14.70
2023-10-04T17:24:30.528Z,14.70
2023-10-04T17:26:57.392Z,14.70
2023-10-04T17:29:24.684Z,14.70
2023-10-04T17:31:51.546Z,14.70
2023-10-04T17:34:18.420Z,14.70
2023-10-04T17:36:45.327Z,14.70
2023-10-04T17:39:12.149Z,14.60
2023-10-04T17:41:38.983Z,14.60
2023-10-04T17:44:06.566Z,14.60
2023-10-04T17:46:33.811Z,14.60
2023-10-04T17:49:00.970Z,14.60
2023-10-04T17:51:27.805Z,14.60
2023-10-04T17:53:54.747Z,14.60
2023-10-04T17:56:21.560Z,14.60
2023-10-04T17:58:48.347Z,14.60
2023-10-04T18:01:15.229Z,14.60
2023-10-04T18:03:43.205Z,14.60
2023-10-04T18:06:10.355Z,14.50
2023-10-04T18:08:37.222Z,14.50
2023-10-04T18:11:04.026Z,14.50
2023-10-04T18:13:30.814Z,14.50
2023-10-04T18:15:57.690Z,14.40
2023-10-04T18:18:24.789Z,14.40
2023-10-04T18:20:51.635Z,14.40
2023-10-04T18:23:18.382Z,14.40
2023-10-04T18:25:45.164Z,14.40
2023-10-04T18:28:11.968Z,14.40
2023-10-04T18:30:38.792Z,14.30
2023-10-04T18:33:06.005Z,14.30
2023-10-04T18:35:32.882Z,14.30
2023-10-04T18:37:59.589Z,14.30
2023-10-04T18:40:26.350Z,14.30
2023-10-04T18:42:53.303Z,14.30
2023-10-04T18:45:20.180Z,14.30
2023-10-04T18:47:47.105Z,14.30
2023-10-04T18:50:13.920Z,14.30
2023-10-04T18:52:40.710Z,14.30
2023-10-04T18:55:07.872Z,14.30
2023-10-04T18:57:35.261Z,14.20
2023-10-04T19:00:03.252Z,14.20
2023-10-04T19:02:30.482Z,14.20
2023-10-04T19:05:05.906Z,14.20
2023-10-04T19:07:34.228Z,14.20
2023-10-04T19:10:01.256Z,14.20
2023-10-04T19:12:28.093Z,14.20
2023-10-04T19:14:55.067Z,14.20
2023-10-04T19:17:21.844Z,14.20
2023-10-04T19:19:48.671Z,14.20
2023-10-04T19:22:15.451Z,14.10
2023-10-04T19:24:42.303Z,14.10
2023-10-04T19:27:09.065Z,14.10
2023-10-04T19:29:35.978Z,14.10
2023-10-04T19:32:02.839Z,14.20
2023-10-04T19:34:29.664Z,14.10
2023-10-04T19:36:56.612Z,14.10
2023-10-04T19:39:23.549Z,14.10
2023-10-04T19:41:50.671Z,14.10
2023-10-04T19:44:17.482Z,14.10
2023-10-04T19:46:44.316Z,14.10
2023-10-04T19:49:11.156Z,14.10
2023-10-04T19:51:38.137Z,14.00
2023-10-04T19:54:09.260Z,14.10
2023-10-04T19:56:36.022Z,14.10
2023-10-04T19:59:02.856Z,14.00
2023-10-04T20:01:29.818Z,14.10
2023-10-04T20:03:56.805Z,14.10
2023-10-04T20:06:23.662Z,14.10
2023-10-04T20:08:50.408Z,14.00
2023-10-04T20:11:17.167Z,14.00
2023-10-04T20:13:44.370Z,14.00
2023-10-04T20:16:11.322Z,14.00
2023-10-04T20:18:38.207Z,14.00
2023-10-04T20:21:05.050Z,14.00
2023-10-04T20:23:31.885Z,14.00
2023-10-04T20:25:58.760Z,14.00
2023-10-04T20:28:25.563Z,13.90
2023-10-04T20:30:52.444Z,14.00
2023-10-04T20:33:19.383Z,14.00
2023-10-04T20:35:46.284Z,13.90
2023-10-04T20:38:13.046Z,13.90
2023-10-04T20:40:39.810Z,13.90
2023-10-04T20:43:06.704Z,13.90
2023-10-04T20:45:33.661Z,13.90
2023-10-04T20:48:00.460Z,13.80
2023-10-04T20:50:27.335Z,13.80
2023-10-04T20:52:54.736Z,13.70
2023-10-04T20:55:21.759Z,13.70
2023-10-04T20:57:48.574Z,13.70
2023-10-04T21:00:16.103Z,13.70
2023-10-04T21:02:43.735Z,13.60
2023-10-04T21:05:10.950Z,13.70
2023-10-04T21:07:40.077Z,13.60
2023-10-04T21:10:07.424Z,13.60
2023-10-04T21:12:34.453Z,13.60
2023-10-04T21:15:01.283Z,13.60
2023-10-04T21:17:28.141Z,13.50
2023-10-04T21:19:54.985Z,13.50
2023-10-04T21:22:21.812Z,13.50
2023-10-04T21:24:49.090Z,13.40
2023-10-04T21:27:16.177Z,13.40
2023-10-04T21:29:42.948Z,13.40
2023-10-04T21:32:09.743Z,13.40
2023-10-04T21:34:36.585Z,13.40
2023-10-04T21:37:03.422Z,13.40
2023-10-04T21:39:30.302Z,13.30
2023-10-04T21:41:57.690Z,13.30
2023-10-04T21:44:26.058Z,13.20
2023-10-04T21:46:52.837Z,13.20
2023-10-04T21:49:19.633Z,13.20
2023-10-04T21:51:46.508Z,13.10
2023-10-04T21:54:13.994Z,13.10
2023-10-04T21:56:40.831Z,13.10
2023-10-04T21:59:07.664Z,13.10
2023-10-04T22:01:35.265Z,13.00
2023-10-04T22:04:03.979Z,13.00
2023-10-04T22:06:31.941Z,12.90
2023-10-04T22:08:58.756Z,12.90
2023-10-04T22:11:25.595Z,12.90
2023-10-04T22:13:52.375Z,12.80
2023-10-04T22:16:19.225Z,12.90
2023-10-04T22:18:46.094Z,12.80
2023-10-04T22:21:12.935Z,12.70
2023-10-04T22:23:39.673Z,12.80
2023-10-04T22:26:06.413Z,12.70
2023-10-04T22:28:33.175Z,12.70
2023-10-04T22:30:59.970Z,12.60
2023-10-04T22:33:26.768Z,12.60
2023-10-04T22:35:53.542Z,12.60
2023-10-04T22:38:20.329Z,12.70
2023-10-04T22:40:47.255Z,12.60
2023-10-04T22:43:14.098Z,12.60
2023-10-04T22:45:40.941Z,12.60
2023-10-04T22:48:07.844Z,12.60
2023-10-04T22:50:34.909Z,12.60
2023-10-04T22:53:01.654Z,12.60
2023-10-04T22:55:28.452Z,12.50
2023-10-04T22:57:55.233Z,12.50
2023-10-04T23:00:22.061Z,12.50
2023-10-04T23:02:49.631Z,12.50
2023-10-04T23:05:16.509Z,12.50
2023-10-04T23:07:43.350Z,12.40
2023-10-04T23:10:10.680Z,12.40
2023-10-04T23:12:39.150Z,12.40
2023-10-04T23:15:07.509Z,12.40
2023-10-04T23:17:34.533Z,12.40
2023-10-04T23:20:01.335Z,12.30
2023-10-04T23:22:28.123Z,12.30
2023-10-04T23:24:54.990Z,12.30
2023-10-04T23:27:21.831Z,12.30
2023-10-04T23:29:48.588Z,12.30
2023-10-04T23:32:15.516Z,12.30
2023-10-04T23:34:42.302Z,12.20
2023-10-04T23:37:09.467Z,12.30
2023-10-04T23:39:37.234Z,12.20
2023-10-04T23:42:04.014Z,12.20
2023-10-04T23:44:30.799Z,12.20
2023-10-04T23:46:57.647Z,12.20
2023-10-04T23:49:24.578Z,12.10
2023-10-04T23:51:51.470Z,12.10
2023-10-04T23:54:18.613Z,12.10
2023-10-04T23:56:45.374Z,12.10
2023-10-04T23:59:12.201Z,12.10
